Franklin, Iowa
Current Conditions -  °F | °C
As of 12:35 PM on Wednesday 26 Nov 2014 (Local Time) from KFSW Reporting Station
Light Snow Light Snow  
Wind Chill: 28°   Ceiling: 600
Heat Index: 34°   Visibility: 2mi
Dew Point: 30°   Wind: 7mph
Humidity: 87%   Direction: 90°E
Pressure: 29.97"   Gusts: NA
Location:  40.6822°N, 91.6042°W
Report Text: KFSW 261835Z AUTO 09006KT 2SM -SN BKN006 OVC014 01/M01 A2997 RMK AO2
Loading
Personal Weather Stations






























Interactive Weather Map New forecast layout! Learn more

10-Day Weather Forecast

Advertisements
Track Severe Weather on mobile